createdAt,value
2023-01-28T00:01:57.173Z,7.20
2023-01-28T00:04:24.421Z,8.10
2023-01-28T00:06:51.443Z,8.47
2023-01-28T00:09:18.430Z,8.33
2023-01-28T00:11:45.493Z,8.40
2023-01-28T00:14:12.953Z,8.17
2023-01-28T00:16:39.926Z,9.20
2023-01-28T00:19:07.363Z,8.10
2023-01-28T00:21:34.781Z,8.73
2023-01-28T00:24:01.878Z,8.53
2023-01-28T00:26:29.154Z,8.73
2023-01-28T00:28:56.221Z,10.00
2023-01-28T00:31:27.437Z,8.63
2023-01-28T00:33:55.983Z,8.50
2023-01-28T00:36:24.986Z,7.87
2023-01-28T00:38:53.822Z,8.30
2023-01-28T00:41:22.990Z,8.40
2023-01-28T00:43:51.693Z,8.03
2023-01-28T00:46:19.853Z,8.27
2023-01-28T00:48:47.260Z,8.17
2023-01-28T00:51:17.304Z,8.00
2023-01-28T00:53:44.736Z,6.97
2023-01-28T00:56:15.659Z,7.07
2023-01-28T00:58:43.561Z,6.40
2023-01-28T01:01:15.831Z,6.07
2023-01-28T01:03:43.391Z,5.30
2023-01-28T01:06:11.902Z,5.47
2023-01-28T01:08:43.032Z,4.03
2023-01-28T01:11:11.759Z,4.30
2023-01-28T01:13:39.287Z,4.03
2023-01-28T01:16:07.743Z,4.20
2023-01-28T01:18:35.374Z,3.80
2023-01-28T01:21:03.453Z,4.60
2023-01-28T01:23:31.412Z,3.87
2023-01-28T01:25:59.025Z,5.00
2023-01-28T01:28:26.067Z,4.67
2023-01-28T01:31:01.550Z,4.43
2023-01-28T01:33:30.250Z,7.03
2023-01-28T01:35:59.656Z,6.43
2023-01-28T01:38:28.523Z,6.97
2023-01-28T01:40:59.862Z,6.43
2023-01-28T01:43:46.916Z,7.27
2023-01-28T01:46:15.905Z,7.43
2023-01-28T01:48:44.807Z,7.60
2023-01-28T01:51:17.431Z,7.10
2023-01-28T01:53:49.787Z,7.20
2023-01-28T01:56:21.508Z,7.63
2023-01-28T01:58:51.637Z,7.20
2023-01-28T02:01:22.882Z,7.07
2023-01-28T02:04:03.323Z,7.37
2023-01-28T02:06:31.541Z,6.93
2023-01-28T02:08:59.333Z,6.67
2023-01-28T02:11:30.745Z,7.13
2023-01-28T02:14:01.901Z,7.27
2023-01-28T02:16:29.720Z,7.43
2023-01-28T02:18:56.829Z,7.90
2023-01-28T02:21:39.767Z,7.73
2023-01-28T02:24:16.944Z,7.93
2023-01-28T02:26:59.025Z,8.50
2023-01-28T02:29:38.488Z,8.03
2023-01-28T02:32:46.057Z,8.60
2023-01-28T02:35:22.838Z,7.50
2023-01-28T02:38:04.121Z,7.67
2023-01-28T02:40:57.758Z,6.77
2023-01-28T02:43:37.090Z,7.30
2023-01-28T02:46:34.900Z,7.10
2023-01-28T02:49:05.057Z,7.20
2023-01-28T02:51:50.184Z,8.07
2023-01-28T02:54:22.273Z,7.93
2023-01-28T02:57:03.252Z,7.13
2023-01-28T02:59:42.486Z,8.07
2023-01-28T03:02:14.316Z,7.43
2023-01-28T03:05:20.454Z,8.17
2023-01-28T03:07:49.262Z,6.70
2023-01-28T03:10:20.820Z,7.60
2023-01-28T03:13:11.497Z,8.57
2023-01-28T03:16:05.029Z,8.87
2023-01-28T03:18:54.492Z,7.50
2023-01-28T03:22:03.278Z,7.17
2023-01-28T03:24:56.691Z,8.03
2023-01-28T03:27:52.820Z,8.07
2023-01-28T03:30:55.594Z,8.03
2023-01-28T03:33:52.737Z,7.27
2023-01-28T03:36:39.153Z,7.57
2023-01-28T03:39:08.480Z,7.90
2023-01-28T03:41:36.130Z,8.23
2023-01-28T03:44:21.734Z,8.83
2023-01-28T03:46:49.029Z,7.77
2023-01-28T03:49:17.393Z,7.63
2023-01-28T03:51:46.274Z,9.23
2023-01-28T03:54:13.686Z,8.00
2023-01-28T03:56:41.238Z,8.73
2023-01-28T03:59:08.510Z,7.97
2023-01-28T04:01:36.932Z,8.23
2023-01-28T04:04:04.055Z,8.43
2023-01-28T04:06:32.455Z,8.50
2023-01-28T04:09:17.852Z,8.23
2023-01-28T04:11:55.983Z,8.77
2023-01-28T04:14:31.201Z,8.33
2023-01-28T04:17:07.528Z,8.40
2023-01-28T04:19:37.240Z,8.30
2023-01-28T04:22:07.644Z,8.60
2023-01-28T04:24:35.418Z,8.30
2023-01-28T04:27:02.538Z,8.47
2023-01-28T04:29:29.569Z,9.10
2023-01-28T04:32:01.593Z,9.30
2023-01-28T04:34:51.257Z,8.67
2023-01-28T04:37:38.530Z,8.60
2023-01-28T04:40:14.639Z,8.43
2023-01-28T04:42:57.711Z,9.57
2023-01-28T04:45:44.977Z,8.40
2023-01-28T04:48:31.451Z,9.77
2023-01-28T04:51:19.679Z,7.83
2023-01-28T04:54:24.864Z,8.67
2023-01-28T04:56:53.835Z,8.80
2023-01-28T04:59:21.008Z,9.23
2023-01-28T05:01:48.388Z,9.57
2023-01-28T05:04:17.374Z,9.77
2023-01-28T05:06:44.490Z,9.63
2023-01-28T05:09:22.337Z,9.70
2023-01-28T05:11:51.335Z,10.03
2023-01-28T05:14:18.540Z,9.40
2023-01-28T05:16:51.351Z,10.03
2023-01-28T05:19:19.554Z,9.90
2023-01-28T05:21:47.325Z,9.43
2023-01-28T05:24:23.706Z,9.73
2023-01-28T05:26:50.733Z,10.20
2023-01-28T05:29:18.484Z,10.17
2023-01-28T05:31:45.563Z,10.20
2023-01-28T05:34:12.586Z,9.67
2023-01-28T05:36:41.277Z,9.87
2023-01-28T05:39:26.466Z,9.97
2023-01-28T05:41:53.551Z,9.77
2023-01-28T05:44:20.589Z,10.43
2023-01-28T05:47:11.545Z,9.80
2023-01-28T05:49:54.873Z,10.83
2023-01-28T05:52:40.384Z,10.53
2023-01-28T05:55:16.132Z,10.43
2023-01-28T05:57:44.623Z,10.07
2023-01-28T06:00:16.219Z,9.20
2023-01-28T06:02:45.169Z,10.70
2023-01-28T06:05:14.836Z,9.20
2023-01-28T06:07:49.964Z,10.27
2023-01-28T06:10:20.040Z,10.63
2023-01-28T06:12:47.812Z,9.80
2023-01-28T06:15:29.898Z,9.93
2023-01-28T06:18:23.359Z,10.00
2023-01-28T06:20:52.185Z,9.53
2023-01-28T06:23:20.029Z,10.07
2023-01-28T06:25:47.207Z,9.97
2023-01-28T06:28:16.291Z,10.97
2023-01-28T06:30:43.350Z,9.87
2023-01-28T06:33:10.350Z,10.30
2023-01-28T06:35:37.329Z,10.47
2023-01-28T06:38:04.728Z,10.00
2023-01-28T06:40:31.719Z,9.97
2023-01-28T06:42:58.684Z,10.87
2023-01-28T06:45:26.582Z,10.37
2023-01-28T06:47:53.615Z,11.00
2023-01-28T06:50:20.712Z,10.53
2023-01-28T06:52:47.647Z,9.53
2023-01-28T06:55:14.678Z,9.63
2023-01-28T06:57:42.411Z,10.57
2023-01-28T07:00:13.496Z,11.53
2023-01-28T07:02:40.650Z,10.03
2023-01-28T07:05:07.929Z,10.90
2023-01-28T07:07:35.026Z,11.00
2023-01-28T07:10:02.026Z,11.33
2023-01-28T07:12:29.073Z,10.60
2023-01-28T07:14:56.101Z,11.17
2023-01-28T07:17:23.132Z,11.20
2023-01-28T07:19:50.157Z,11.40
2023-01-28T07:22:17.159Z,11.07
2023-01-28T07:24:44.346Z,10.30
2023-01-28T07:27:11.327Z,10.03
2023-01-28T07:29:38.369Z,10.50
2023-01-28T07:32:07.361Z,10.27
2023-01-28T07:34:34.597Z,11.10
2023-01-28T07:37:01.606Z,10.07
2023-01-28T07:39:28.590Z,11.30
2023-01-28T07:41:55.507Z,10.50
2023-01-28T07:44:39.724Z,11.70
2023-01-28T07:47:07.397Z,11.93
2023-01-28T07:49:34.777Z,11.47
2023-01-28T07:52:02.257Z,11.63
2023-01-28T07:54:29.865Z,12.73
2023-01-28T07:56:56.833Z,10.73
2023-01-28T07:59:23.925Z,12.07
2023-01-28T08:01:53.553Z,12.37
2023-01-28T08:04:22.143Z,12.57
2023-01-28T08:06:49.173Z,12.03
2023-01-28T08:09:16.164Z,12.13
2023-01-28T08:11:43.132Z,12.53
2023-01-28T08:14:11.622Z,12.67
2023-01-28T08:16:38.667Z,12.73
2023-01-28T08:19:05.692Z,13.40
2023-01-28T08:21:32.703Z,14.30
2023-01-28T08:23:59.776Z,12.67
2023-01-28T08:26:26.726Z,12.70
2023-01-28T08:28:53.935Z,12.60
2023-01-28T08:31:20.962Z,12.80
2023-01-28T08:33:48.002Z,12.20
2023-01-28T08:36:15.753Z,12.40
2023-01-28T08:38:43.576Z,12.90
2023-01-28T08:41:10.678Z,11.87
2023-01-28T08:43:37.674Z,12.93
2023-01-28T08:46:07.884Z,11.93
2023-01-28T08:48:34.924Z,11.93
2023-01-28T08:51:01.932Z,11.93
2023-01-28T08:53:28.909Z,11.73
2023-01-28T08:55:55.995Z,12.63
2023-01-28T08:58:23.516Z,11.53
2023-01-28T09:00:51.116Z,12.03
2023-01-28T09:03:18.527Z,13.80
2023-01-28T09:05:45.644Z,12.90
2023-01-28T09:08:14.915Z,12.20
2023-01-28T09:10:42.690Z,12.40
2023-01-28T09:13:13.011Z,12.23
2023-01-28T09:15:40.528Z,12.60
2023-01-28T09:18:07.519Z,12.43
2023-01-28T09:20:34.698Z,12.23
2023-01-28T09:23:02.546Z,12.77
2023-01-28T09:25:29.875Z,13.33
2023-01-28T09:27:57.962Z,14.10
2023-01-28T09:30:25.251Z,13.73
2023-01-28T09:32:53.227Z,14.23
2023-01-28T09:35:20.651Z,13.60
2023-01-28T09:37:48.487Z,14.50
2023-01-28T09:40:29.490Z,14.20
2023-01-28T09:43:06.365Z,16.27
2023-01-28T09:45:43.466Z,13.93
2023-01-28T09:48:17.980Z,17.57
2023-01-28T09:50:52.536Z,16.53
2023-01-28T09:53:31.045Z,18.70
2023-01-28T09:56:04.519Z,19.50
2023-01-28T09:58:32.001Z,16.57
2023-01-28T10:01:20.962Z,13.37
2023-01-28T10:04:12.714Z,13.83
2023-01-28T10:07:13.508Z,13.13
2023-01-28T10:10:02.473Z,11.73
2023-01-28T10:12:49.691Z,11.70
2023-01-28T10:15:45.931Z,11.33
2023-01-28T10:18:17.563Z,11.47
2023-01-28T10:20:50.010Z,12.97
2023-01-28T10:23:31.018Z,12.13
2023-01-28T10:26:01.498Z,11.77
2023-01-28T10:28:30.669Z,11.70
2023-01-28T10:30:57.702Z,12.37
2023-01-28T10:33:40.022Z,11.33
2023-01-28T10:36:09.443Z,11.73
2023-01-28T10:38:36.485Z,11.50
2023-01-28T10:41:05.627Z,11.23
2023-01-28T10:43:37.165Z,10.90
2023-01-28T10:46:06.959Z,9.03
2023-01-28T10:48:37.849Z,11.70
2023-01-28T10:51:06.461Z,12.43
2023-01-28T10:53:40.891Z,12.17
2023-01-28T10:56:23.598Z,11.53
2023-01-28T10:59:07.211Z,11.43
2023-01-28T11:01:49.142Z,10.63
2023-01-28T11:04:19.973Z,10.63
2023-01-28T11:07:15.799Z,12.60
2023-01-28T11:09:49.948Z,9.90
2023-01-28T11:12:27.592Z,10.50
2023-01-28T11:15:03.595Z,11.23
2023-01-28T11:17:37.695Z,11.07
2023-01-28T11:20:20.506Z,11.03
2023-01-28T11:22:48.490Z,10.80
2023-01-28T11:25:30.420Z,11.43
2023-01-28T11:27:59.605Z,10.53
2023-01-28T11:30:28.517Z,10.00
2023-01-28T11:33:00.319Z,9.57
2023-01-28T11:35:30.990Z,9.40
2023-01-28T11:37:59.554Z,8.23
2023-01-28T11:40:27.917Z,9.43
2023-01-28T11:42:57.912Z,8.87
2023-01-28T11:45:53.830Z,11.00
2023-01-28T11:48:54.240Z,10.13
2023-01-28T11:51:36.379Z,9.13
2023-01-28T11:54:32.641Z,8.53
2023-01-28T11:57:08.641Z,8.13
2023-01-28T12:00:09.330Z,8.50
2023-01-28T12:02:45.450Z,8.70
2023-01-28T12:05:24.453Z,9.03
2023-01-28T12:08:02.319Z,7.97
2023-01-28T12:11:14.132Z,8.53
2023-01-28T12:14:06.194Z,8.30
2023-01-28T12:17:20.925Z,8.90
2023-01-28T12:20:12.178Z,7.40
2023-01-28T12:22:58.372Z,7.33
2023-01-28T12:25:59.314Z,7.27
2023-01-28T12:28:44.773Z,7.40
2023-01-28T12:31:52.742Z,6.37
2023-01-28T12:34:37.586Z,6.27
2023-01-28T12:37:19.447Z,5.70
2023-01-28T12:39:46.393Z,7.57
2023-01-28T12:42:31.419Z,6.70
2023-01-28T12:45:25.424Z,6.27
2023-01-28T12:48:03.551Z,6.70
2023-01-28T12:50:38.151Z,6.40
2023-01-28T12:53:31.751Z,5.60
2023-01-28T12:56:10.069Z,5.93
2023-01-28T12:58:47.258Z,6.37
2023-01-28T13:01:20.292Z,5.03
2023-01-28T13:04:06.658Z,6.17
2023-01-28T13:06:44.557Z,5.80
2023-01-28T13:09:20.914Z,5.57
2023-01-28T13:11:51.509Z,5.67
2023-01-28T13:14:20.506Z,5.70
2023-01-28T13:16:47.557Z,5.77
2023-01-28T13:19:23.058Z,5.87
2023-01-28T13:21:50.180Z,5.70
2023-01-28T13:24:17.289Z,5.37
2023-01-28T13:26:56.626Z,6.10
2023-01-28T13:29:33.092Z,5.57
2023-01-28T13:32:03.150Z,5.83
2023-01-28T13:34:35.628Z,5.60
2023-01-28T13:37:43.665Z,6.20
2023-01-28T13:40:13.191Z,6.10
2023-01-28T13:42:41.074Z,5.50
2023-01-28T13:45:34.304Z,5.50
2023-01-28T13:48:18.441Z,6.33
2023-01-28T13:50:47.043Z,5.30
2023-01-28T13:53:39.012Z,6.20
2023-01-28T13:56:16.151Z,5.90
2023-01-28T13:59:20.523Z,6.40
2023-01-28T14:01:47.525Z,6.03
2023-01-28T14:04:42.145Z,5.73
2023-01-28T14:07:27.648Z,6.10
2023-01-28T14:10:09.505Z,6.03
2023-01-28T14:12:51.299Z,5.30
2023-01-28T14:15:37.052Z,6.10
2023-01-28T14:18:14.841Z,6.70
2023-01-28T14:20:45.515Z,6.20
2023-01-28T14:23:22.273Z,6.43
2023-01-28T14:25:52.235Z,6.27
2023-01-28T14:28:45.073Z,6.60
2023-01-28T14:31:25.185Z,5.63
2023-01-28T14:33:52.644Z,6.03
2023-01-28T14:36:19.723Z,5.47
2023-01-28T14:38:47.135Z,6.07
2023-01-28T14:41:32.357Z,5.67
2023-01-28T14:43:59.549Z,7.40
2023-01-28T14:46:47.587Z,6.00
2023-01-28T14:49:29.689Z,5.40
2023-01-28T14:52:11.645Z,5.77
2023-01-28T14:54:56.587Z,6.80
2023-01-28T14:57:42.334Z,6.60
2023-01-28T15:00:18.380Z,5.63
2023-01-28T15:02:45.469Z,5.60
2023-01-28T15:05:21.741Z,6.70
2023-01-28T15:07:49.510Z,6.17
2023-01-28T15:10:21.555Z,5.90
2023-01-28T15:12:54.311Z,6.37
2023-01-28T15:15:30.084Z,6.23
2023-01-28T15:18:21.410Z,5.80
2023-01-28T15:20:52.051Z,6.40
2023-01-28T15:23:31.663Z,6.20
2023-01-28T15:25:59.035Z,5.53
2023-01-28T15:28:30.068Z,7.13
2023-01-28T15:30:58.178Z,6.60
2023-01-28T15:33:25.698Z,7.33
2023-01-28T15:35:55.102Z,8.17
2023-01-28T15:38:22.832Z,6.40
2023-01-28T15:40:59.920Z,6.97
2023-01-28T15:43:41.376Z,7.27
2023-01-28T15:46:15.544Z,7.00
2023-01-28T15:48:47.270Z,7.93
2023-01-28T15:51:25.514Z,7.17
2023-01-28T15:53:58.272Z,6.30
2023-01-28T15:56:27.934Z,6.70
2023-01-28T15:58:56.289Z,7.40
2023-01-28T16:01:23.842Z,8.10
2023-01-28T16:04:05.491Z,8.20
2023-01-28T16:06:38.793Z,6.90
2023-01-28T16:09:17.470Z,7.70
2023-01-28T16:11:45.095Z,8.40
2023-01-28T16:14:37.980Z,9.07
2023-01-28T16:17:05.342Z,9.17
2023-01-28T16:19:35.316Z,9.67
2023-01-28T16:22:02.725Z,11.03
2023-01-28T16:24:32.511Z,9.03
2023-01-28T16:27:05.784Z,9.37
2023-01-28T16:29:33.389Z,9.67
2023-01-28T16:32:01.411Z,10.33
2023-01-28T16:34:28.410Z,9.47
2023-01-28T16:37:02.006Z,9.43
2023-01-28T16:39:30.331Z,9.30
2023-01-28T16:41:58.417Z,9.33
2023-01-28T16:44:25.406Z,8.77
2023-01-28T16:46:52.494Z,10.60
2023-01-28T16:49:19.545Z,9.87
2023-01-28T16:51:46.636Z,10.33
2023-01-28T16:54:16.011Z,10.63
2023-01-28T16:56:46.535Z,9.63
2023-01-28T16:59:16.013Z,10.73
2023-01-28T17:01:44.374Z,10.10
2023-01-28T17:04:13.026Z,9.40
2023-01-28T17:06:45.276Z,10.13
2023-01-28T17:09:14.097Z,9.50
2023-01-28T17:11:41.447Z,10.00
2023-01-28T17:14:09.803Z,10.43
2023-01-28T17:16:37.261Z,10.53
2023-01-28T17:19:04.531Z,11.33
2023-01-28T17:21:31.736Z,9.70
2023-01-28T17:24:01.012Z,9.87
2023-01-28T17:26:29.200Z,9.43
2023-01-28T17:28:56.880Z,10.33
2023-01-28T17:31:24.300Z,11.47
2023-01-28T17:33:55.223Z,10.90
2023-01-28T17:36:23.174Z,9.57
2023-01-28T17:38:50.194Z,9.63
2023-01-28T17:41:17.693Z,9.97
2023-01-28T17:43:49.814Z,10.40
2023-01-28T17:46:18.816Z,12.90
2023-01-28T17:48:46.498Z,11.13
2023-01-28T17:51:14.052Z,8.67
2023-01-28T17:53:52.343Z,8.70
2023-01-28T17:56:25.826Z,10.43
2023-01-28T17:58:55.105Z,11.27
2023-01-28T18:01:23.797Z,9.37
2023-01-28T18:03:51.786Z,8.47
2023-01-28T18:06:18.872Z,10.13
2023-01-28T18:08:46.039Z,13.33
2023-01-28T18:11:15.273Z,11.27
2023-01-28T18:13:43.258Z,10.93
2023-01-28T18:16:15.102Z,10.77
2023-01-28T18:18:42.563Z,12.30
2023-01-28T18:21:31.660Z,10.63
2023-01-28T18:24:02.431Z,10.57
2023-01-28T18:26:29.550Z,10.10
2023-01-28T18:28:59.032Z,11.77
2023-01-28T18:31:26.095Z,13.27
2023-01-28T18:33:53.212Z,14.63
2023-01-28T18:36:20.292Z,13.67
2023-01-28T18:38:47.291Z,13.50
2023-01-28T18:41:14.763Z,16.57
2023-01-28T18:43:42.384Z,17.20
2023-01-28T18:46:12.009Z,17.00
2023-01-28T18:48:39.314Z,18.90
2023-01-28T18:51:12.331Z,16.63
2023-01-28T18:53:44.505Z,17.47
2023-01-28T18:56:11.582Z,15.43
2023-01-28T18:58:38.580Z,16.83
2023-01-28T19:01:10.937Z,19.33
2023-01-28T19:03:38.625Z,13.03
2023-01-28T19:06:10.180Z,14.80
2023-01-28T19:08:37.230Z,15.00
2023-01-28T19:11:04.368Z,19.13
2023-01-28T19:13:31.658Z,14.50
2023-01-28T19:16:04.568Z,13.17
2023-01-28T19:18:31.979Z,14.37
2023-01-28T19:21:04.025Z,19.87
2023-01-28T19:23:47.980Z,20.10
2023-01-28T19:26:21.151Z,18.73
2023-01-28T19:28:51.999Z,17.97
2023-01-28T19:31:20.916Z,18.47
2023-01-28T19:33:49.571Z,16.70
2023-01-28T19:36:16.613Z,19.40
2023-01-28T19:38:44.688Z,20.37
2023-01-28T19:41:16.288Z,17.83
2023-01-28T19:43:44.194Z,17.30
2023-01-28T19:46:14.682Z,13.03
2023-01-28T19:48:41.741Z,11.63
2023-01-28T19:51:10.156Z,11.70
2023-01-28T19:53:38.377Z,10.33
2023-01-28T19:56:09.158Z,12.07
2023-01-28T19:58:38.375Z,11.43
2023-01-28T20:01:11.537Z,12.83
2023-01-28T20:03:38.779Z,12.63
2023-01-28T20:06:09.001Z,13.83
2023-01-28T20:08:36.131Z,13.50
2023-01-28T20:11:04.336Z,14.10
2023-01-28T20:13:32.719Z,14.57
2023-01-28T20:16:04.158Z,15.97
2023-01-28T20:18:31.208Z,14.10
2023-01-28T20:20:58.213Z,16.23
2023-01-28T20:23:25.236Z,15.60
2023-01-28T20:25:57.878Z,17.57
2023-01-28T20:28:25.492Z,20.93
2023-01-28T20:30:53.610Z,18.93
2023-01-28T20:33:21.212Z,26.83
2023-01-28T20:35:48.494Z,20.87
2023-01-28T20:38:15.638Z,16.33
2023-01-28T20:40:43.354Z,19.93
2023-01-28T20:43:10.715Z,14.17
2023-01-28T20:45:38.336Z,15.67
2023-01-28T20:48:05.520Z,18.93
2023-01-28T20:50:32.600Z,18.83
2023-01-28T20:52:59.561Z,18.90
2023-01-28T20:55:28.585Z,20.37
2023-01-28T20:57:55.598Z,24.67
2023-01-28T21:00:22.960Z,22.10
2023-01-28T21:02:50.125Z,20.17
2023-01-28T21:05:17.304Z,18.77
2023-01-28T21:07:44.346Z,21.30
2023-01-28T21:10:11.948Z,20.63
2023-01-28T21:12:39.008Z,20.43
2023-01-28T21:15:07.983Z,20.13
2023-01-28T21:17:34.977Z,22.13
2023-01-28T21:20:02.057Z,20.20
2023-01-28T21:22:29.021Z,21.70
2023-01-28T21:24:56.024Z,22.03
2023-01-28T21:27:23.038Z,21.80
2023-01-28T21:29:50.035Z,21.37
2023-01-28T21:32:17.714Z,21.33
2023-01-28T21:34:44.785Z,20.90
2023-01-28T21:37:11.895Z,21.40
2023-01-28T21:39:38.893Z,22.33
2023-01-28T21:42:05.885Z,21.60
2023-01-28T21:44:32.888Z,22.60
2023-01-28T21:46:59.851Z,20.13
2023-01-28T21:49:26.828Z,21.30
2023-01-28T21:51:53.793Z,21.43
2023-01-28T21:54:21.413Z,18.90
2023-01-28T21:56:50.062Z,18.00
2023-01-28T21:59:30.321Z,18.90
2023-01-28T22:02:02.872Z,17.40
2023-01-28T22:04:35.402Z,17.73
2023-01-28T22:07:04.129Z,16.43
2023-01-28T22:09:32.085Z,18.07
2023-01-28T22:11:59.985Z,15.40
2023-01-28T22:14:27.085Z,16.60
2023-01-28T22:16:54.187Z,17.77
2023-01-28T22:19:21.392Z,16.37
2023-01-28T22:21:48.862Z,17.00
2023-01-28T22:24:24.593Z,17.57
2023-01-28T22:26:53.846Z,17.40
2023-01-28T22:29:22.301Z,18.67
2023-01-28T22:31:51.539Z,16.40
2023-01-28T22:34:19.807Z,19.00
2023-01-28T22:36:47.269Z,20.97
2023-01-28T22:39:16.882Z,19.57
2023-01-28T22:41:44.777Z,19.90
2023-01-28T22:44:12.285Z,18.27
2023-01-28T22:46:39.288Z,19.13
2023-01-28T22:49:06.385Z,19.30
2023-01-28T22:51:35.841Z,19.97
2023-01-28T22:54:03.734Z,19.97
2023-01-28T22:56:31.370Z,20.37
2023-01-28T22:59:00.518Z,19.77
2023-01-28T23:01:28.246Z,19.50
2023-01-28T23:03:56.326Z,20.67
2023-01-28T23:06:24.797Z,19.50
2023-01-28T23:08:52.574Z,19.67
2023-01-28T23:11:25.517Z,20.27
2023-01-28T23:14:13.518Z,19.13
2023-01-28T23:16:59.265Z,21.53
2023-01-28T23:19:45.035Z,19.50
2023-01-28T23:22:46.621Z,20.20
2023-01-28T23:25:14.585Z,20.67
2023-01-28T23:27:42.057Z,20.43
2023-01-28T23:30:10.661Z,19.83
2023-01-28T23:32:52.549Z,23.23
2023-01-28T23:35:20.333Z,21.40
2023-01-28T23:37:48.203Z,21.30
2023-01-28T23:40:16.074Z,21.67
2023-01-28T23:42:48.370Z,22.33
2023-01-28T23:45:15.388Z,21.87
2023-01-28T23:47:42.382Z,21.80
2023-01-28T23:50:10.139Z,20.90
2023-01-28T23:52:37.177Z,20.60
2023-01-28T23:55:05.049Z,21.30
2023-01-28T23:57:32.097Z,20.73
2023-01-28T23:59:59.137Z,21.23
